sensor_id;sensor_type;location;lat;lon;timestamp;pressure;altitude;pressure_sealevel;temperature;humidity
21359;BME280;13506;50.852;20.632;2022-12-18T00:01:25;99515.69;;;-1.88;97.39
21359;BME280;13506;50.852;20.632;2022-12-18T00:03:55;99527.56;;;-1.87;97.47
21359;BME280;13506;50.852;20.632;2022-12-18T00:06:25;99519.84;;;-1.93;97.06
21359;BME280;13506;50.852;20.632;2022-12-18T00:08:54;99530.97;;;-1.90;97.24
21359;BME280;13506;50.852;20.632;2022-12-18T00:11:25;99531.72;;;-1.95;97.26
21359;BME280;13506;50.852;20.632;2022-12-18T00:13:57;99538.63;;;-1.88;97.47
21359;BME280;13506;50.852;20.632;2022-12-18T00:16:27;99542.81;;;-1.92;96.70
21359;BME280;13506;50.852;20.632;2022-12-18T00:18:59;99548.75;;;-1.93;97.11
21359;BME280;13506;50.852;20.632;2022-12-18T00:21:28;99539.38;;;-1.97;97.14
21359;BME280;13506;50.852;20.632;2022-12-18T00:23:56;99565.75;;;-1.93;96.95
21359;BME280;13506;50.852;20.632;2022-12-18T00:26:26;99564.09;;;-1.90;96.18
21359;BME280;13506;50.852;20.632;2022-12-18T00:29:02;99564.16;;;-1.85;96.37
21359;BME280;13506;50.852;20.632;2022-12-18T00:31:30;99566.66;;;-1.87;95.94
21359;BME280;13506;50.852;20.632;2022-12-18T00:33:59;99578.56;;;-1.87;95.77
21359;BME280;13506;50.852;20.632;2022-12-18T00:36:30;99586.22;;;-1.87;95.81
21359;BME280;13506;50.852;20.632;2022-12-18T00:39:00;99584.56;;;-1.85;95.53
21359;BME280;13506;50.852;20.632;2022-12-18T00:41:28;99580.31;;;-1.86;95.42
21359;BME280;13506;50.852;20.632;2022-12-18T00:44:17;99598.19;;;-1.80;95.26
21359;BME280;13506;50.852;20.632;2022-12-18T00:46:46;99587.94;;;-1.86;94.21
21359;BME280;13506;50.852;20.632;2022-12-18T00:49:15;99601.56;;;-1.84;94.43
21359;BME280;13506;50.852;20.632;2022-12-18T00:51:44;99593.06;;;-1.83;93.53
21359;BME280;13506;50.852;20.632;2022-12-18T00:54:12;99610.94;;;-1.81;93.41
21359;BME280;13506;50.852;20.632;2022-12-18T00:56:40;99603.28;;;-1.83;93.12
21359;BME280;13506;50.852;20.632;2022-12-18T00:59:08;99616.94;;;-1.78;93.15
21359;BME280;13506;50.852;20.632;2022-12-18T01:01:36;99615.22;;;-1.79;93.13
21359;BME280;13506;50.852;20.632;2022-12-18T01:04:06;99620.31;;;-1.79;92.86
21359;BME280;13506;50.852;20.632;2022-12-18T01:06:34;99628.88;;;-1.74;92.72
21359;BME280;13506;50.852;20.632;2022-12-18T01:09:02;99621.97;;;-1.82;92.36
21359;BME280;13506;50.852;20.632;2022-12-18T01:11:30;99630.53;;;-1.79;92.14
21359;BME280;13506;50.852;20.632;2022-12-18T01:13:58;99631.34;;;-1.80;91.96
21359;BME280;13506;50.852;20.632;2022-12-18T01:16:25;99629.69;;;-1.79;92.09
21359;BME280;13506;50.852;20.632;2022-12-18T01:18:55;99637.41;;;-1.73;92.18
21359;BME280;13506;50.852;20.632;2022-12-18T01:21:23;99642.44;;;-1.78;91.69
21359;BME280;13506;50.852;20.632;2022-12-18T01:23:53;99644.94;;;-1.81;91.24
21359;BME280;13506;50.852;20.632;2022-12-18T01:26:24;99639.00;;;-1.80;91.18
21359;BME280;13506;50.852;20.632;2022-12-18T01:28:54;99640.78;;;-1.74;91.21
21359;BME280;13506;50.852;20.632;2022-12-18T01:31:25;99642.50;;;-1.72;90.79
21359;BME280;13506;50.852;20.632;2022-12-18T01:33:57;99642.56;;;-1.69;90.93
21359;BME280;13506;50.852;20.632;2022-12-18T01:36:29;99644.31;;;-1.65;91.06
21359;BME280;13506;50.852;20.632;2022-12-18T01:39:00;99642.63;;;-1.62;90.60
21359;BME280;13506;50.852;20.632;2022-12-18T01:41:30;99648.66;;;-1.56;90.77
21359;BME280;13506;50.852;20.632;2022-12-18T01:45:03;99643.63;;;-1.50;90.30
21359;BME280;13506;50.852;20.632;2022-12-18T01:47:35;99647.94;;;-1.44;90.30
21359;BME280;13506;50.852;20.632;2022-12-18T01:50:08;99648.00;;;-1.41;90.04
21359;BME280;13506;50.852;20.632;2022-12-18T01:52:37;99655.66;;;-1.38;89.63
21359;BME280;13506;50.852;20.632;2022-12-18T01:55:07;99656.53;;;-1.39;89.35
21359;BME280;13506;50.852;20.632;2022-12-18T01:57:35;99645.50;;;-1.35;89.72
21359;BME280;13506;50.852;20.632;2022-12-18T02:00:07;99650.63;;;-1.33;89.50
21359;BME280;13506;50.852;20.632;2022-12-18T02:02:42;99653.22;;;-1.30;89.28
21359;BME280;13506;50.852;20.632;2022-12-18T02:05:16;99666.00;;;-1.29;89.84
21359;BME280;13506;50.852;20.632;2022-12-18T02:07:58;99665.94;;;-1.32;89.77
21359;BME280;13506;50.852;20.632;2022-12-18T02:10:31;99668.53;;;-1.30;89.46
21359;BME280;13506;50.852;20.632;2022-12-18T02:13:11;99674.53;;;-1.24;89.94
21359;BME280;13506;50.852;20.632;2022-12-18T02:15:48;99680.50;;;-1.25;89.09
21359;BME280;13506;50.852;20.632;2022-12-18T02:18:21;99690.59;;;-1.34;88.54
21359;BME280;13506;50.852;20.632;2022-12-18T02:20:59;99678.78;;;-1.26;89.16
21359;BME280;13506;50.852;20.632;2022-12-18T02:23:45;99687.31;;;-1.24;88.72
21359;BME280;13506;50.852;20.632;2022-12-18T02:26:22;99687.31;;;-1.24;89.45
21359;BME280;13506;50.852;20.632;2022-12-18T02:28:58;99695.84;;;-1.21;89.51
21359;BME280;13506;50.852;20.632;2022-12-18T02:31:33;99700.94;;;-1.21;88.83
21359;BME280;13506;50.852;20.632;2022-12-18T02:34:06;99694.16;;;-1.23;88.86
21359;BME280;13506;50.852;20.632;2022-12-18T02:36:41;99690.72;;;-1.25;89.12
21359;BME280;13506;50.852;20.632;2022-12-18T02:39:12;99701.78;;;-1.24;89.51
21359;BME280;13506;50.852;20.632;2022-12-18T02:41:53;99712.84;;;-1.24;89.28
21359;BME280;13506;50.852;20.632;2022-12-18T02:44:23;99718.78;;;-1.23;89.14
21359;BME280;13506;50.852;20.632;2022-12-18T02:46:52;99711.13;;;-1.25;89.18
21359;BME280;13506;50.852;20.632;2022-12-18T02:49:31;99712.06;;;-1.18;89.66
21359;BME280;13506;50.852;20.632;2022-12-18T02:52:07;99722.28;;;-1.16;89.62
21359;BME280;13506;50.852;20.632;2022-12-18T02:54:57;99721.41;;;-1.20;89.50
21359;BME280;13506;50.852;20.632;2022-12-18T02:57:37;99728.22;;;-1.17;89.61
21359;BME280;13506;50.852;20.632;2022-12-18T03:00:12;99732.50;;;-1.16;89.99
21359;BME280;13506;50.852;20.632;2022-12-18T03:02:48;99727.34;;;-1.19;89.66
21359;BME280;13506;50.852;20.632;2022-12-18T03:05:21;99733.28;;;-1.22;90.03
21359;BME280;13506;50.852;20.632;2022-12-18T03:07:56;99733.25;;;-1.24;90.66
21359;BME280;13506;50.852;20.632;2022-12-18T03:10:30;99735.84;;;-1.22;90.54
21359;BME280;13506;50.852;20.632;2022-12-18T03:13:06;99743.53;;;-1.20;90.75
21359;BME280;13506;50.852;20.632;2022-12-18T03:15:38;99746.88;;;-1.23;91.12
21359;BME280;13506;50.852;20.632;2022-12-18T03:18:15;99746.06;;;-1.20;91.09
21359;BME280;13506;50.852;20.632;2022-12-18T03:20:46;99748.63;;;-1.20;90.92
21359;BME280;13506;50.852;20.632;2022-12-18T03:23:22;99752.00;;;-1.21;91.56
21359;BME280;13506;50.852;20.632;2022-12-18T03:26:00;99761.38;;;-1.20;91.40
21359;BME280;13506;50.852;20.632;2022-12-18T03:28:35;99759.63;;;-1.23;91.69
21359;BME280;13506;50.852;20.632;2022-12-18T03:31:06;99752.81;;;-1.24;92.00
21359;BME280;13506;50.852;20.632;2022-12-18T03:33:40;99768.09;;;-1.27;91.57
21359;BME280;13506;50.852;20.632;2022-12-18T03:36:09;99773.16;;;-1.30;92.12
21359;BME280;13506;50.852;20.632;2022-12-18T03:38:38;99771.50;;;-1.28;92.46
21359;BME280;13506;50.852;20.632;2022-12-18T03:41:15;99775.75;;;-1.27;92.44
21359;BME280;13506;50.852;20.632;2022-12-18T03:44:11;99768.97;;;-1.27;92.38
21359;BME280;13506;50.852;20.632;2022-12-18T03:46:50;99784.31;;;-1.24;92.67
21359;BME280;13506;50.852;20.632;2022-12-18T03:49:25;99780.91;;;-1.24;92.46
21359;BME280;13506;50.852;20.632;2022-12-18T03:52:04;99796.28;;;-1.19;92.55
21359;BME280;13506;50.852;20.632;2022-12-18T03:54:34;99787.75;;;-1.21;92.65
21359;BME280;13506;50.852;20.632;2022-12-18T03:57:14;99796.25;;;-1.21;93.14
21359;BME280;13506;50.852;20.632;2022-12-18T03:59:47;99781.69;;;-1.28;92.60
21359;BME280;13506;50.852;20.632;2022-12-18T04:02:19;99807.88;;;-1.43;93.55
21359;BME280;13506;50.852;20.632;2022-12-18T04:04:50;99797.69;;;-1.40;93.45
21359;BME280;13506;50.852;20.632;2022-12-18T04:07:20;99811.34;;;-1.38;93.91
21359;BME280;13506;50.852;20.632;2022-12-18T04:09:50;99811.41;;;-1.32;93.38
21359;BME280;13506;50.852;20.632;2022-12-18T04:12:24;99811.09;;;-1.56;93.23
21359;BME280;13506;50.852;20.632;2022-12-18T04:14:54;99819.03;;;-1.36;93.87
21359;BME280;13506;50.852;20.632;2022-12-18T04:17:22;99808.81;;;-1.36;92.97
21359;BME280;13506;50.852;20.632;2022-12-18T04:19:50;99819.84;;;-1.39;93.22
21359;BME280;13506;50.852;20.632;2022-12-18T04:22:18;99819.84;;;-1.39;93.43
21359;BME280;13506;50.852;20.632;2022-12-18T04:24:51;99824.88;;;-1.42;93.34
21359;BME280;13506;50.852;20.632;2022-12-18T04:27:28;99832.41;;;-1.51;93.24
21359;BME280;13506;50.852;20.632;2022-12-18T04:29:59;99830.56;;;-1.61;93.50
21359;BME280;13506;50.852;20.632;2022-12-18T04:32:26;99839.97;;;-1.57;93.72
21359;BME280;13506;50.852;20.632;2022-12-18T04:34:54;99840.75;;;-1.61;94.17
21359;BME280;13506;50.852;20.632;2022-12-18T04:37:22;99851.13;;;-1.52;93.49
21359;BME280;13506;50.852;20.632;2022-12-18T04:39:51;99853.78;;;-1.45;93.55
21359;BME280;13506;50.852;20.632;2022-12-18T04:42:29;99851.25;;;-1.43;93.78
21359;BME280;13506;50.852;20.632;2022-12-18T04:44:59;99855.56;;;-1.39;93.49
21359;BME280;13506;50.852;20.632;2022-12-18T04:47:26;99865.78;;;-1.39;93.33
21359;BME280;13506;50.852;20.632;2022-12-18T04:49:54;99865.81;;;-1.36;93.21
21359;BME280;13506;50.852;20.632;2022-12-18T04:52:21;99883.69;;;-1.37;92.71
21359;BME280;13506;50.852;20.632;2022-12-18T04:54:49;99892.91;;;-1.44;93.07
21359;BME280;13506;50.852;20.632;2022-12-18T04:57:17;99890.34;;;-1.44;93.76
21359;BME280;13506;50.852;20.632;2022-12-18T04:59:45;99889.44;;;-1.49;93.95
21359;BME280;13506;50.852;20.632;2022-12-18T05:02:14;99880.91;;;-1.51;93.83
21359;BME280;13506;50.852;20.632;2022-12-18T05:04:42;99874.97;;;-1.50;93.87
21359;BME280;13506;50.852;20.632;2022-12-18T05:07:09;99889.34;;;-1.55;94.03
21359;BME280;13506;50.852;20.632;2022-12-18T05:09:37;99880.97;;;-1.48;94.30
21359;BME280;13506;50.852;20.632;2022-12-18T05:12:05;99892.91;;;-1.44;93.62
21359;BME280;13506;50.852;20.632;2022-12-18T05:14:33;99898.00;;;-1.44;93.49
21359;BME280;13506;50.852;20.632;2022-12-18T05:17:00;99898.09;;;-1.38;93.22
21359;BME280;13506;50.852;20.632;2022-12-18T05:19:30;99904.91;;;-1.38;93.45
21359;BME280;13506;50.852;20.632;2022-12-18T05:21:58;99900.69;;;-1.36;93.38
21359;BME280;13506;50.852;20.632;2022-12-18T05:24:25;99905.84;;;-1.33;93.10
21359;BME280;13506;50.852;20.632;2022-12-18T05:26:53;99906.72;;;-1.33;92.84
21359;BME280;13506;50.852;20.632;2022-12-18T05:29:21;99912.72;;;-1.28;93.33
21359;BME280;13506;50.852;20.632;2022-12-18T05:31:48;99925.56;;;-1.23;92.98
21359;BME280;13506;50.852;20.632;2022-12-18T05:34:16;99920.50;;;-1.20;93.29
21359;BME280;13506;50.852;20.632;2022-12-18T05:36:45;99927.38;;;-1.16;93.17
21359;BME280;13506;50.852;20.632;2022-12-18T05:39:12;99924.94;;;-1.10;92.56
21359;BME280;13506;50.852;20.632;2022-12-18T05:41:40;99927.53;;;-1.05;93.02
21359;BME280;13506;50.852;20.632;2022-12-18T05:44:09;99933.56;;;-1.01;92.87
21359;BME280;13506;50.852;20.632;2022-12-18T05:46:36;99933.59;;;-0.98;92.66
21359;BME280;13506;50.852;20.632;2022-12-18T05:49:04;99935.25;;;-1.00;92.13
21359;BME280;13506;50.852;20.632;2022-12-18T05:51:31;99931.00;;;-1.00;92.71
21359;BME280;13506;50.852;20.632;2022-12-18T05:54:00;99936.19;;;-0.94;93.15
21359;BME280;13506;50.852;20.632;2022-12-18T05:56:28;99939.59;;;-0.95;92.50
21359;BME280;13506;50.852;20.632;2022-12-18T05:58:56;99942.06;;;-1.01;92.47
21359;BME280;13506;50.852;20.632;2022-12-18T06:01:25;99946.31;;;-1.00;92.26
21359;BME280;13506;50.852;20.632;2022-12-18T06:03:54;99954.88;;;-0.98;92.43
21359;BME280;13506;50.852;20.632;2022-12-18T06:06:24;99959.97;;;-0.98;92.18
21359;BME280;13506;50.852;20.632;2022-12-18T06:08:53;99964.25;;;-0.95;92.15
21359;BME280;13506;50.852;20.632;2022-12-18T06:11:24;99964.25;;;-0.95;92.08
21359;BME280;13506;50.852;20.632;2022-12-18T06:13:53;99974.56;;;-0.91;92.90
21359;BME280;13506;50.852;20.632;2022-12-18T06:16:21;99964.34;;;-0.89;91.98
21359;BME280;13506;50.852;20.632;2022-12-18T06:18:49;99977.94;;;-0.92;92.17
21359;BME280;13506;50.852;20.632;2022-12-18T06:21:16;99967.69;;;-0.93;91.66
21359;BME280;13506;50.852;20.632;2022-12-18T06:23:44;99968.59;;;-0.93;91.72
21359;BME280;13506;50.852;20.632;2022-12-18T06:26:13;99971.94;;;-0.97;91.42
21359;BME280;13506;50.852;20.632;2022-12-18T06:28:42;99966.75;;;-1.00;92.25
21359;BME280;13506;50.852;20.632;2022-12-18T06:31:10;99970.97;;;-1.04;91.23
21359;BME280;13506;50.852;20.632;2022-12-18T06:33:38;99981.22;;;-1.00;91.66
21359;BME280;13506;50.852;20.632;2022-12-18T06:36:08;99974.38;;;-1.03;91.42
21359;BME280;13506;50.852;20.632;2022-12-18T06:38:38;99987.97;;;-1.04;91.40
21359;BME280;13506;50.852;20.632;2022-12-18T06:41:07;99990.53;;;-1.04;91.65
21359;BME280;13506;50.852;20.632;2022-12-18T06:43:35;99990.50;;;-1.07;91.52
21359;BME280;13506;50.852;20.632;2022-12-18T06:46:04;99983.72;;;-1.05;91.74
21359;BME280;13506;50.852;20.632;2022-12-18T06:48:32;99987.97;;;-1.06;91.49
21359;BME280;13506;50.852;20.632;2022-12-18T06:51:00;99995.59;;;-1.07;91.19
21359;BME280;13506;50.852;20.632;2022-12-18T06:53:29;100004.91;;;-1.11;90.53
21359;BME280;13506;50.852;20.632;2022-12-18T06:56:00;100005.75;;;-1.10;90.99
21359;BME280;13506;50.852;20.632;2022-12-18T06:58:29;100011.66;;;-1.13;91.57
21359;BME280;13506;50.852;20.632;2022-12-18T07:01:00;100010.81;;;-1.13;90.85
21359;BME280;13506;50.852;20.632;2022-12-18T07:03:30;100004.78;;;-1.17;91.15
21359;BME280;13506;50.852;20.632;2022-12-18T07:05:57;100013.13;;;-1.27;91.18
21359;BME280;13506;50.852;20.632;2022-12-18T07:08:25;100032.78;;;-1.23;90.81
21359;BME280;13506;50.852;20.632;2022-12-18T07:10:53;100031.00;;;-1.29;91.17
21359;BME280;13506;50.852;20.632;2022-12-18T07:13:21;100021.38;;;-1.42;89.95
21359;BME280;13506;50.852;20.632;2022-12-18T07:15:50;100035.19;;;-1.32;90.45
21359;BME280;13506;50.852;20.632;2022-12-18T07:18:18;100046.19;;;-1.35;90.78
21359;BME280;13506;50.852;20.632;2022-12-18T07:20:47;100037.69;;;-1.34;90.82
21359;BME280;13506;50.852;20.632;2022-12-18T07:23:15;100047.91;;;-1.34;90.71
21359;BME280;13506;50.852;20.632;2022-12-18T07:25:42;100061.56;;;-1.33;90.77
21359;BME280;13506;50.852;20.632;2022-12-18T07:28:10;100048.69;;;-1.38;90.88
21359;BME280;13506;50.852;20.632;2022-12-18T07:30:38;100055.47;;;-1.38;91.11
21359;BME280;13506;50.852;20.632;2022-12-18T07:33:06;100064.72;;;-1.45;90.49
21359;BME280;13506;50.852;20.632;2022-12-18T07:35:34;100065.66;;;-1.41;91.04
21359;BME280;13506;50.852;20.632;2022-12-18T07:38:03;100069.94;;;-1.39;90.78
21359;BME280;13506;50.852;20.632;2022-12-18T07:40:31;100066.47;;;-1.42;90.64
21359;BME280;13506;50.852;20.632;2022-12-18T07:42:59;100082.75;;;-1.36;91.11
21359;BME280;13506;50.852;20.632;2022-12-18T07:45:26;100083.63;;;-1.34;91.02
21359;BME280;13506;50.852;20.632;2022-12-18T07:47:55;100088.75;;;-1.34;91.15
21359;BME280;13506;50.852;20.632;2022-12-18T07:50:22;100088.75;;;-1.34;90.51
21359;BME280;13506;50.852;20.632;2022-12-18T07:52:50;100091.28;;;-1.35;90.63
21359;BME280;13506;50.852;20.632;2022-12-18T07:55:19;100095.53;;;-1.34;90.68
21359;BME280;13506;50.852;20.632;2022-12-18T07:57:47;100100.66;;;-1.34;90.85
21359;BME280;13506;50.852;20.632;2022-12-18T08:00:15;100097.28;;;-1.32;90.51
21359;BME280;13506;50.852;20.632;2022-12-18T08:02:44;100106.03;;;-1.20;90.79
21359;BME280;13506;50.852;20.632;2022-12-18T08:05:12;100107.81;;;-1.15;90.57
21359;BME280;13506;50.852;20.632;2022-12-18T08:07:40;100115.66;;;-1.06;90.46
21359;BME280;13506;50.852;20.632;2022-12-18T08:10:09;100120.66;;;-1.12;89.94
21359;BME280;13506;50.852;20.632;2022-12-18T08:12:38;100128.41;;;-1.04;89.72
21359;BME280;13506;50.852;20.632;2022-12-18T08:15:07;100131.94;;;-0.99;90.08
21359;BME280;13506;50.852;20.632;2022-12-18T08:17:35;100140.41;;;-1.00;89.38
21359;BME280;13506;50.852;20.632;2022-12-18T08:20:03;100136.22;;;-0.96;89.47
21359;BME280;13506;50.852;20.632;2022-12-18T08:22:33;100141.31;;;-0.98;89.41
21359;BME280;13506;50.852;20.632;2022-12-18T08:25:00;100149.84;;;-0.96;89.31
21359;BME280;13506;50.852;20.632;2022-12-18T08:27:29;100134.50;;;-0.99;89.52
21359;BME280;13506;50.852;20.632;2022-12-18T08:29:58;100142.19;;;-0.96;89.33
21359;BME280;13506;50.852;20.632;2022-12-18T08:32:26;100144.66;;;-1.00;88.93
21359;BME280;13506;50.852;20.632;2022-12-18T08:34:54;100143.84;;;-0.98;88.87
21359;BME280;13506;50.852;20.632;2022-12-18T08:37:22;100143.94;;;-0.93;89.33
21359;BME280;13506;50.852;20.632;2022-12-18T08:39:49;100143.03;;;-0.95;89.23
21359;BME280;13506;50.852;20.632;2022-12-18T08:42:18;100145.66;;;-0.92;88.53
21359;BME280;13506;50.852;20.632;2022-12-18T08:45:05;100155.97;;;-0.88;88.83
21359;BME280;13506;50.852;20.632;2022-12-18T08:47:33;100155.97;;;-0.88;88.56
21359;BME280;13506;50.852;20.632;2022-12-18T08:50:01;100162.84;;;-0.84;88.48
21359;BME280;13506;50.852;20.632;2022-12-18T08:52:32;100160.31;;;-0.82;87.94
21359;BME280;13506;50.852;20.632;2022-12-18T08:54:59;100164.84;;;-0.67;88.75
21359;BME280;13506;50.852;20.632;2022-12-18T08:57:28;100159.84;;;-0.61;88.59
21359;BME280;13506;50.852;20.632;2022-12-18T08:59:55;100171.13;;;-0.47;88.85
21359;BME280;13506;50.852;20.632;2022-12-18T09:02:25;100158.59;;;-0.31;88.55
21359;BME280;13506;50.852;20.632;2022-12-18T09:04:52;100155.94;;;-0.37;87.37
21359;BME280;13506;50.852;20.632;2022-12-18T09:07:20;100179.25;;;-0.19;87.54
21359;BME280;13506;50.852;20.632;2022-12-18T09:09:48;100158.06;;;-0.09;87.11
21359;BME280;13506;50.852;20.632;2022-12-18T09:12:16;100165.78;;;-0.06;87.22
21359;BME280;13506;50.852;20.632;2022-12-18T09:14:44;100171.81;;;-0.02;86.26
21359;BME280;13506;50.852;20.632;2022-12-18T09:17:11;100177.88;;;0.06;87.01
21359;BME280;13506;50.852;20.632;2022-12-18T09:19:41;100178.84;;;0.13;86.07
21359;BME280;13506;50.852;20.632;2022-12-18T09:22:09;100177.19;;;0.18;85.51
21359;BME280;13506;50.852;20.632;2022-12-18T09:24:37;100179.78;;;0.21;85.38
21359;BME280;13506;50.852;20.632;2022-12-18T09:27:04;100182.44;;;0.27;84.86
21359;BME280;13506;50.852;20.632;2022-12-18T09:29:32;100180.81;;;0.32;85.46
21359;BME280;13506;50.852;20.632;2022-12-18T09:32:00;100187.69;;;0.36;84.94
21359;BME280;13506;50.852;20.632;2022-12-18T09:34:28;100189.44;;;0.39;84.71
21359;BME280;13506;50.852;20.632;2022-12-18T09:36:57;100192.91;;;0.46;84.87
21359;BME280;13506;50.852;20.632;2022-12-18T09:39:25;100183.66;;;0.57;84.95
21359;BME280;13506;50.852;20.632;2022-12-18T09:41:56;100188.88;;;0.63;83.64
21359;BME280;13506;50.852;20.632;2022-12-18T09:44:27;100186.34;;;0.66;83.49
21359;BME280;13506;50.852;20.632;2022-12-18T09:47:09;100191.47;;;0.68;82.33
21359;BME280;13506;50.852;20.632;2022-12-18T09:49:43;100185.56;;;0.70;82.66
21359;BME280;13506;50.852;20.632;2022-12-18T09:52:21;100193.31;;;0.76;83.08
21359;BME280;13506;50.852;20.632;2022-12-18T09:54:53;100191.66;;;0.85;83.55
21359;BME280;13506;50.852;20.632;2022-12-18T09:57:24;100202.00;;;0.89;81.66
21359;BME280;13506;50.852;20.632;2022-12-18T09:59:58;100195.97;;;0.89;81.33
21359;BME280;13506;50.852;20.632;2022-12-18T10:02:30;100202.78;;;0.87;81.12
21359;BME280;13506;50.852;20.632;2022-12-18T10:05:07;100203.59;;;0.82;80.01
21359;BME280;13506;50.852;20.632;2022-12-18T10:07:50;100203.53;;;0.78;81.64
21359;BME280;13506;50.852;20.632;2022-12-18T10:10:29;100198.38;;;0.73;80.79
21359;BME280;13506;50.852;20.632;2022-12-18T10:13:08;100203.56;;;0.76;81.31
21359;BME280;13506;50.852;20.632;2022-12-18T10:15:48;100204.44;;;0.78;81.01
21359;BME280;13506;50.852;20.632;2022-12-18T10:18:29;100216.38;;;0.79;81.78
21359;BME280;13506;50.852;20.632;2022-12-18T10:21:07;100217.09;;;0.69;80.74
21359;BME280;13506;50.852;20.632;2022-12-18T10:23:47;100208.56;;;0.66;81.02
21359;BME280;13506;50.852;20.632;2022-12-18T10:26:19;100211.13;;;0.66;82.22
21359;BME280;13506;50.852;20.632;2022-12-18T10:28:46;100205.19;;;0.71;81.52
21359;BME280;13506;50.852;20.632;2022-12-18T10:31:17;100215.34;;;0.64;80.73
21359;BME280;13506;50.852;20.632;2022-12-18T10:33:46;100211.16;;;0.70;81.17
21359;BME280;13506;50.852;20.632;2022-12-18T10:36:14;100220.53;;;0.70;81.17
21359;BME280;13506;50.852;20.632;2022-12-18T10:38:43;100210.28;;;0.68;80.52
21359;BME280;13506;50.852;20.632;2022-12-18T10:41:25;100217.09;;;0.69;81.85
21359;BME280;13506;50.852;20.632;2022-12-18T10:44:16;100211.13;;;0.66;81.65
21359;BME280;13506;50.852;20.632;2022-12-18T10:46:45;100195.78;;;0.70;81.98
21359;BME280;13506;50.852;20.632;2022-12-18T10:49:25;100202.59;;;0.70;80.63
21359;BME280;13506;50.852;20.632;2022-12-18T10:52:05;100208.56;;;0.66;80.80
21359;BME280;13506;50.852;20.632;2022-12-18T10:54:36;100209.38;;;0.65;81.18
21359;BME280;13506;50.852;20.632;2022-12-18T10:57:29;100192.28;;;0.62;80.65
21359;BME280;13506;50.852;20.632;2022-12-18T11:00:03;100200.78;;;0.61;80.49
21359;BME280;13506;50.852;20.632;2022-12-18T11:02:41;100208.41;;;0.56;79.62
21359;BME280;13506;50.852;20.632;2022-12-18T11:05:25;100204.00;;;0.46;80.79
21359;BME280;13506;50.852;20.632;2022-12-18T11:07:54;100205.72;;;0.46;80.66
21359;BME280;13506;50.852;20.632;2022-12-18T11:10:30;100210.03;;;0.47;81.12
21359;BME280;13506;50.852;20.632;2022-12-18T11:13:16;100200.69;;;0.52;81.08
21359;BME280;13506;50.852;20.632;2022-12-18T11:15:45;100205.03;;;0.57;80.95
21359;BME280;13506;50.852;20.632;2022-12-18T11:18:19;100202.44;;;0.56;80.34
21359;BME280;13506;50.852;20.632;2022-12-18T11:20:54;100199.00;;;0.54;80.94
21359;BME280;13506;50.852;20.632;2022-12-18T11:23:24;100207.66;;;0.62;81.31
21359;BME280;13506;50.852;20.632;2022-12-18T11:25:56;100209.41;;;0.66;81.39
21359;BME280;13506;50.852;20.632;2022-12-18T11:28:36;100204.19;;;0.60;80.29
21359;BME280;13506;50.852;20.632;2022-12-18T11:31:21;100204.22;;;0.62;79.41
21359;BME280;13506;50.852;20.632;2022-12-18T11:33:57;100204.16;;;0.57;79.97
21359;BME280;13506;50.852;20.632;2022-12-18T11:36:29;100194.75;;;0.56;80.39
21359;BME280;13506;50.852;20.632;2022-12-18T11:39:01;100202.38;;;0.50;79.33
21359;BME280;13506;50.852;20.632;2022-12-18T11:41:36;100182.88;;;0.63;79.63
21359;BME280;13506;50.852;20.632;2022-12-18T11:44:27;100199.94;;;0.60;79.18
21359;BME280;13506;50.852;20.632;2022-12-18T11:47:01;100192.38;;;0.71;80.93
21359;BME280;13506;50.852;20.632;2022-12-18T11:49:34;100194.03;;;0.66;80.28
21359;BME280;13506;50.852;20.632;2022-12-18T11:52:09;100192.31;;;0.65;79.91
21359;BME280;13506;50.852;20.632;2022-12-18T11:54:37;100184.06;;;0.91;80.54
21359;BME280;13506;50.852;20.632;2022-12-18T11:57:16;100198.00;;;1.14;80.33
21359;BME280;13506;50.852;20.632;2022-12-18T11:59:55;100197.19;;;1.20;78.51
21359;BME280;13506;50.852;20.632;2022-12-18T12:03:02;100207.53;;;1.29;78.37
21359;BME280;13506;50.852;20.632;2022-12-18T12:05:45;100200.66;;;1.25;78.21
21359;BME280;13506;50.852;20.632;2022-12-18T12:08:27;100200.63;;;1.22;77.95
21359;BME280;13506;50.852;20.632;2022-12-18T12:11:02;100223.25;;;0.80;76.84
21359;BME280;13506;50.852;20.632;2022-12-18T12:13:54;100216.41;;;0.82;76.96
21359;BME280;13506;50.852;20.632;2022-12-18T12:16:27;100222.13;;;0.60;76.74
21359;BME280;13506;50.852;20.632;2022-12-18T12:19:07;100209.31;;;0.60;78.12
21359;BME280;13506;50.852;20.632;2022-12-18T12:21:48;100219.69;;;0.71;78.66
21359;BME280;13506;50.852;20.632;2022-12-18T12:24:29;100224.00;;;0.73;79.04
21359;BME280;13506;50.852;20.632;2022-12-18T12:27:09;100240.03;;;0.58;77.69
21359;BME280;13506;50.852;20.632;2022-12-18T12:29:52;100231.59;;;0.66;78.97
21359;BME280;13506;50.852;20.632;2022-12-18T12:32:42;100228.28;;;0.74;79.40
21359;BME280;13506;50.852;20.632;2022-12-18T12:35:22;100225.81;;;0.80;78.07
21359;BME280;13506;50.852;20.632;2022-12-18T12:38:06;100229.16;;;0.78;77.54
21359;BME280;13506;50.852;20.632;2022-12-18T12:40:39;100236.84;;;0.76;77.44
21359;BME280;13506;50.852;20.632;2022-12-18T12:43:20;100240.22;;;0.72;78.25
21359;BME280;13506;50.852;20.632;2022-12-18T12:45:55;100240.13;;;0.66;77.85
21359;BME280;13506;50.852;20.632;2022-12-18T12:48:38;100239.25;;;0.64;78.74
21359;BME280;13506;50.852;20.632;2022-12-18T12:51:13;100256.25;;;0.60;78.73
21359;BME280;13506;50.852;20.632;2022-12-18T12:53:44;100249.47;;;0.63;79.49
21359;BME280;13506;50.852;20.632;2022-12-18T12:56:15;100258.81;;;0.60;79.50
21359;BME280;13506;50.852;20.632;2022-12-18T12:58:52;100258.00;;;0.63;80.42
21359;BME280;13506;50.852;20.632;2022-12-18T13:01:37;100267.47;;;0.69;80.44
21359;BME280;13506;50.852;20.632;2022-12-18T13:04:15;100265.81;;;0.72;80.56
21359;BME280;13506;50.852;20.632;2022-12-18T13:06:53;100272.59;;;0.69;79.88
21359;BME280;13506;50.852;20.632;2022-12-18T13:09:22;100285.34;;;0.64;78.96
21359;BME280;13506;50.852;20.632;2022-12-18T13:11:49;100284.41;;;0.59;78.96
21359;BME280;13506;50.852;20.632;2022-12-18T13:14:36;100297.16;;;0.54;78.83